sensor_id;sensor_type;location;lat;lon;timestamp;noise_LAeq;noise_LA_min;noise_LA_max;noise_LA01;noise_LA95
63692;Laerm;49838;51.798;10.954;2024-01-06T00:01:13;51.18;30.94;70.23;;
63692;Laerm;49838;51.798;10.954;2024-01-06T00:03:41;35.43;30.21;45.49;;
63692;Laerm;49838;51.798;10.954;2024-01-06T00:06:11;36.65;31.29;46.00;;
63692;Laerm;49838;51.798;10.954;2024-01-06T00:08:40;35.15;29.86;47.08;;
63692;Laerm;49838;51.798;10.954;2024-01-06T00:11:07;35.86;29.52;43.91;;
63692;Laerm;49838;51.798;10.954;2024-01-06T00:13:34;36.28;29.17;46.06;;
63692;Laerm;49838;51.798;10.954;2024-01-06T00:16:02;31.39;28.40;42.14;;
63692;Laerm;49838;51.798;10.954;2024-01-06T00:18:29;33.38;29.58;45.34;;
63692;Laerm;49838;51.798;10.954;2024-01-06T00:20:56;32.71;28.56;48.58;;
63692;Laerm;49838;51.798;10.954;2024-01-06T00:23:24;33.43;29.71;43.57;;
63692;Laerm;49838;51.798;10.954;2024-01-06T00:25:52;31.43;28.23;41.58;;
63692;Laerm;49838;51.798;10.954;2024-01-06T00:28:19;32.26;28.14;50.80;;
63692;Laerm;49838;51.798;10.954;2024-01-06T00:30:47;50.88;28.42;69.55;;
63692;Laerm;49838;51.798;10.954;2024-01-06T00:33:14;32.53;27.98;50.78;;
63692;Laerm;49838;51.798;10.954;2024-01-06T00:35:41;35.46;28.18;48.47;;
63692;Laerm;49838;51.798;10.954;2024-01-06T00:38:09;31.86;27.69;42.55;;
63692;Laerm;49838;51.798;10.954;2024-01-06T00:40:36;30.10;27.57;38.55;;
63692;Laerm;49838;51.798;10.954;2024-01-06T00:43:05;29.60;27.80;40.33;;
63692;Laerm;49838;51.798;10.954;2024-01-06T00:45:32;31.82;27.64;41.89;;
63692;Laerm;49838;51.798;10.954;2024-01-06T00:47:59;29.75;27.37;43.76;;
63692;Laerm;49838;51.798;10.954;2024-01-06T00:50:26;32.00;27.55;48.38;;
63692;Laerm;49838;51.798;10.954;2024-01-06T00:52:54;30.86;27.67;44.97;;
63692;Laerm;49838;51.798;10.954;2024-01-06T00:55:22;28.95;27.35;39.23;;
63692;Laerm;49838;51.798;10.954;2024-01-06T00:57:50;30.95;28.00;41.31;;
63692;Laerm;49838;51.798;10.954;2024-01-06T01:00:19;31.39;27.64;41.64;;
63692;Laerm;49838;51.798;10.954;2024-01-06T01:02:46;46.77;27.45;63.90;;
63692;Laerm;49838;51.798;10.954;2024-01-06T01:05:14;29.37;27.11;42.76;;
63692;Laerm;49838;51.798;10.954;2024-01-06T01:07:41;31.27;27.44;48.02;;
63692;Laerm;49838;51.798;10.954;2024-01-06T01:10:09;31.28;27.73;44.08;;
63692;Laerm;49838;51.798;10.954;2024-01-06T01:12:36;30.31;27.76;39.77;;
63692;Laerm;49838;51.798;10.954;2024-01-06T01:15:06;30.22;27.58;42.07;;
63692;Laerm;49838;51.798;10.954;2024-01-06T01:17:35;30.79;27.46;44.01;;
63692;Laerm;49838;51.798;10.954;2024-01-06T01:20:03;30.84;27.43;40.40;;
63692;Laerm;49838;51.798;10.954;2024-01-06T01:22:31;30.33;27.51;38.45;;
63692;Laerm;49838;51.798;10.954;2024-01-06T01:24:58;29.22;27.45;42.41;;
63692;Laerm;49838;51.798;10.954;2024-01-06T01:27:31;29.91;27.88;41.30;;
63692;Laerm;49838;51.798;10.954;2024-01-06T01:29:58;31.12;28.28;43.45;;
63692;Laerm;49838;51.798;10.954;2024-01-06T01:32:25;29.76;28.14;38.11;;
63692;Laerm;49838;51.798;10.954;2024-01-06T01:34:54;31.51;28.79;48.11;;
63692;Laerm;49838;51.798;10.954;2024-01-06T01:37:21;29.97;27.67;38.40;;
63692;Laerm;49838;51.798;10.954;2024-01-06T01:39:48;30.00;28.01;38.28;;
63692;Laerm;49838;51.798;10.954;2024-01-06T01:42:16;30.44;27.94;38.16;;
63692;Laerm;49838;51.798;10.954;2024-01-06T01:44:43;34.74;29.29;40.64;;
63692;Laerm;49838;51.798;10.954;2024-01-06T01:47:11;36.67;30.63;50.29;;
63692;Laerm;49838;51.798;10.954;2024-01-06T01:49:38;29.87;27.63;37.99;;
63692;Laerm;49838;51.798;10.954;2024-01-06T01:52:07;30.62;27.68;35.84;;
63692;Laerm;49838;51.798;10.954;2024-01-06T01:54:34;31.19;27.96;42.42;;
63692;Laerm;49838;51.798;10.954;2024-01-06T01:57:02;29.68;27.76;40.62;;
63692;Laerm;49838;51.798;10.954;2024-01-06T01:59:29;30.54;28.45;36.98;;
63692;Laerm;49838;51.798;10.954;2024-01-06T02:01:57;30.23;27.80;42.34;;
63692;Laerm;49838;51.798;10.954;2024-01-06T02:04:24;30.45;27.54;39.37;;
63692;Laerm;49838;51.798;10.954;2024-01-06T02:06:51;30.31;27.60;43.65;;
63692;Laerm;49838;51.798;10.954;2024-01-06T02:09:20;31.27;27.41;39.65;;
63692;Laerm;49838;51.798;10.954;2024-01-06T02:11:49;30.51;27.99;42.13;;
63692;Laerm;49838;51.798;10.954;2024-01-06T02:14:17;33.50;28.12;53.54;;
63692;Laerm;49838;51.798;10.954;2024-01-06T02:16:44;32.25;28.72;40.65;;
63692;Laerm;49838;51.798;10.954;2024-01-06T02:19:13;32.37;28.00;46.51;;
63692;Laerm;49838;51.798;10.954;2024-01-06T02:21:42;53.93;27.98;84.70;;
63692;Laerm;49838;51.798;10.954;2024-01-06T02:24:11;29.87;27.36;42.85;;
63692;Laerm;49838;51.798;10.954;2024-01-06T02:26:38;30.31;27.26;45.16;;
63692;Laerm;49838;51.798;10.954;2024-01-06T02:29:05;29.50;27.15;42.03;;
63692;Laerm;49838;51.798;10.954;2024-01-06T02:31:32;35.55;27.16;60.67;;
63692;Laerm;49838;51.798;10.954;2024-01-06T02:34:00;29.62;27.14;36.28;;
63692;Laerm;49838;51.798;10.954;2024-01-06T02:36:27;29.55;27.45;41.63;;
63692;Laerm;49838;51.798;10.954;2024-01-06T02:38:54;34.39;28.12;43.72;;
63692;Laerm;49838;51.798;10.954;2024-01-06T02:41:23;34.10;27.15;49.35;;
63692;Laerm;49838;51.798;10.954;2024-01-06T02:43:51;29.31;27.02;39.94;;
63692;Laerm;49838;51.798;10.954;2024-01-06T02:46:19;31.67;26.88;44.22;;
63692;Laerm;49838;51.798;10.954;2024-01-06T02:48:46;31.51;27.56;41.81;;
63692;Laerm;49838;51.798;10.954;2024-01-06T02:51:13;43.10;27.21;65.23;;
63692;Laerm;49838;51.798;10.954;2024-01-06T02:53:41;30.20;26.93;48.36;;
63692;Laerm;49838;51.798;10.954;2024-01-06T02:56:09;29.70;27.42;36.79;;
63692;Laerm;49838;51.798;10.954;2024-01-06T02:58:38;30.68;27.05;44.78;;
63692;Laerm;49838;51.798;10.954;2024-01-06T03:01:06;31.72;27.21;45.09;;
63692;Laerm;49838;51.798;10.954;2024-01-06T03:03:32;74.41;27.21;106.34;;
63692;Laerm;49838;51.798;10.954;2024-01-06T03:06:00;31.02;27.17;49.95;;
63692;Laerm;49838;51.798;10.954;2024-01-06T03:08:27;32.80;27.37;45.51;;
63692;Laerm;49838;51.798;10.954;2024-01-06T03:10:54;41.92;27.87;55.91;;
63692;Laerm;49838;51.798;10.954;2024-01-06T03:13:21;31.82;26.98;44.74;;
63692;Laerm;49838;51.798;10.954;2024-01-06T03:15:50;30.05;27.15;36.54;;
63692;Laerm;49838;51.798;10.954;2024-01-06T03:18:17;33.36;28.46;49.28;;
63692;Laerm;49838;51.798;10.954;2024-01-06T03:20:45;32.32;27.22;50.64;;
63692;Laerm;49838;51.798;10.954;2024-01-06T03:23:12;31.11;27.19;54.43;;
63692;Laerm;49838;51.798;10.954;2024-01-06T03:25:39;31.02;27.07;39.72;;
63692;Laerm;49838;51.798;10.954;2024-01-06T03:28:06;29.66;27.42;37.36;;
63692;Laerm;49838;51.798;10.954;2024-01-06T03:30:34;31.16;27.34;44.54;;
63692;Laerm;49838;51.798;10.954;2024-01-06T03:33:04;30.54;27.31;43.65;;
63692;Laerm;49838;51.798;10.954;2024-01-06T03:35:31;30.74;27.39;40.62;;
63692;Laerm;49838;51.798;10.954;2024-01-06T03:37:58;29.47;27.33;36.62;;
63692;Laerm;49838;51.798;10.954;2024-01-06T03:40:25;30.73;27.24;40.08;;
63692;Laerm;49838;51.798;10.954;2024-01-06T03:42:52;31.19;27.17;45.60;;
63692;Laerm;49838;51.798;10.954;2024-01-06T03:45:20;36.99;27.35;54.13;;
63692;Laerm;49838;51.798;10.954;2024-01-06T03:47:47;29.64;27.38;36.90;;
63692;Laerm;49838;51.798;10.954;2024-01-06T03:50:16;29.10;26.95;37.62;;
63692;Laerm;49838;51.798;10.954;2024-01-06T03:52:43;28.79;27.04;39.64;;
63692;Laerm;49838;51.798;10.954;2024-01-06T03:55:10;35.21;27.23;46.91;;
63692;Laerm;49838;51.798;10.954;2024-01-06T03:57:38;33.72;27.83;48.06;;
63692;Laerm;49838;51.798;10.954;2024-01-06T04:00:06;34.32;28.16;54.34;;
63692;Laerm;49838;51.798;10.954;2024-01-06T04:02:33;36.18;27.05;53.48;;
63692;Laerm;49838;51.798;10.954;2024-01-06T04:05:01;30.85;27.70;38.91;;
63692;Laerm;49838;51.798;10.954;2024-01-06T04:07:29;30.64;27.48;38.89;;
63692;Laerm;49838;51.798;10.954;2024-01-06T04:09:56;29.93;27.00;43.38;;
63692;Laerm;49838;51.798;10.954;2024-01-06T04:12:24;30.00;27.67;42.03;;
63692;Laerm;49838;51.798;10.954;2024-01-06T04:14:51;30.57;27.81;39.99;;
63692;Laerm;49838;51.798;10.954;2024-01-06T04:17:19;47.98;27.46;68.49;;
63692;Laerm;49838;51.798;10.954;2024-01-06T04:19:46;45.77;28.38;67.42;;
63692;Laerm;49838;51.798;10.954;2024-01-06T04:22:13;31.56;28.16;47.96;;
63692;Laerm;49838;51.798;10.954;2024-01-06T04:24:42;30.49;27.75;40.94;;
63692;Laerm;49838;51.798;10.954;2024-01-06T04:27:09;48.21;28.29;65.45;;
63692;Laerm;49838;51.798;10.954;2024-01-06T04:29:36;32.40;28.09;42.34;;
63692;Laerm;49838;51.798;10.954;2024-01-06T04:32:05;52.78;27.68;71.86;;
63692;Laerm;49838;51.798;10.954;2024-01-06T04:34:33;31.29;28.23;52.20;;
63692;Laerm;49838;51.798;10.954;2024-01-06T04:37:00;48.63;28.57;65.83;;
63692;Laerm;49838;51.798;10.954;2024-01-06T04:39:28;35.38;28.47;49.74;;
63692;Laerm;49838;51.798;10.954;2024-01-06T04:41:56;37.06;28.69;63.31;;
63692;Laerm;49838;51.798;10.954;2024-01-06T04:44:23;48.44;28.40;65.80;;
63692;Laerm;49838;51.798;10.954;2024-01-06T04:46:51;33.41;28.92;44.30;;
63692;Laerm;49838;51.798;10.954;2024-01-06T04:49:18;38.62;29.27;64.62;;
63692;Laerm;49838;51.798;10.954;2024-01-06T04:51:45;36.08;29.14;58.64;;
63692;Laerm;49838;51.798;10.954;2024-01-06T04:54:12;44.46;30.07;60.24;;
63692;Laerm;49838;51.798;10.954;2024-01-06T04:56:40;35.73;29.47;42.51;;
63692;Laerm;49838;51.798;10.954;2024-01-06T04:59:08;35.93;29.68;45.07;;
63692;Laerm;49838;51.798;10.954;2024-01-06T05:01:35;35.00;29.98;44.24;;
63692;Laerm;49838;51.798;10.954;2024-01-06T05:04:03;35.82;29.01;51.11;;
63692;Laerm;49838;51.798;10.954;2024-01-06T05:06:31;33.39;28.14;45.18;;
63692;Laerm;49838;51.798;10.954;2024-01-06T05:08:58;34.64;28.68;45.15;;
63692;Laerm;49838;51.798;10.954;2024-01-06T05:11:26;36.21;29.74;48.07;;
63692;Laerm;49838;51.798;10.954;2024-01-06T05:13:53;32.18;28.46;41.74;;
63692;Laerm;49838;51.798;10.954;2024-01-06T05:16:24;48.60;28.32;68.26;;
63692;Laerm;49838;51.798;10.954;2024-01-06T05:18:52;53.95;29.18;72.02;;
63692;Laerm;49838;51.798;10.954;2024-01-06T05:21:19;54.52;29.73;72.36;;
63692;Laerm;49838;51.798;10.954;2024-01-06T05:23:47;47.93;28.23;69.01;;
63692;Laerm;49838;51.798;10.954;2024-01-06T05:26:14;32.51;28.75;44.34;;
63692;Laerm;49838;51.798;10.954;2024-01-06T05:28:41;31.29;28.45;45.03;;
63692;Laerm;49838;51.798;10.954;2024-01-06T05:31:09;33.35;28.58;43.13;;
63692;Laerm;49838;51.798;10.954;2024-01-06T05:33:37;50.46;28.10;69.12;;
63692;Laerm;49838;51.798;10.954;2024-01-06T05:36:05;33.41;28.43;40.35;;
63692;Laerm;49838;51.798;10.954;2024-01-06T05:38:32;34.56;28.60;47.74;;
63692;Laerm;49838;51.798;10.954;2024-01-06T05:40:59;35.80;28.38;48.40;;
63692;Laerm;49838;51.798;10.954;2024-01-06T05:43:27;53.64;29.88;73.24;;
63692;Laerm;49838;51.798;10.954;2024-01-06T05:45:54;37.97;28.74;50.17;;
63692;Laerm;49838;51.798;10.954;2024-01-06T05:48:21;47.02;29.41;77.25;;
63692;Laerm;49838;51.798;10.954;2024-01-06T05:50:50;53.15;28.29;73.44;;
63692;Laerm;49838;51.798;10.954;2024-01-06T05:53:17;49.20;28.67;64.99;;
63692;Laerm;49838;51.798;10.954;2024-01-06T05:55:45;41.11;29.07;57.24;;
63692;Laerm;49838;51.798;10.954;2024-01-06T05:58:12;38.27;29.36;48.58;;
63692;Laerm;49838;51.798;10.954;2024-01-06T06:00:40;36.55;29.20;49.68;;
63692;Laerm;49838;51.798;10.954;2024-01-06T06:03:07;38.78;30.68;50.40;;
63692;Laerm;49838;51.798;10.954;2024-01-06T06:05:34;37.71;31.10;48.04;;
63692;Laerm;49838;51.798;10.954;2024-01-06T06:08:04;37.52;30.31;48.10;;
63692;Laerm;49838;51.798;10.954;2024-01-06T06:10:32;40.23;33.07;47.33;;
63692;Laerm;49838;51.798;10.954;2024-01-06T06:13:17;40.93;29.95;53.03;;
63692;Laerm;49838;51.798;10.954;2024-01-06T06:15:45;36.55;30.00;49.98;;
63692;Laerm;49838;51.798;10.954;2024-01-06T06:18:12;38.55;29.53;61.64;;
63692;Laerm;49838;51.798;10.954;2024-01-06T06:20:39;39.69;30.50;51.51;;
63692;Laerm;49838;51.798;10.954;2024-01-06T06:23:09;38.54;30.08;52.25;;
63692;Laerm;49838;51.798;10.954;2024-01-06T06:25:37;39.90;33.54;53.71;;
63692;Laerm;49838;51.798;10.954;2024-01-06T06:28:05;51.81;29.96;69.74;;
63692;Laerm;49838;51.798;10.954;2024-01-06T06:30:32;42.45;33.78;60.04;;
63692;Laerm;49838;51.798;10.954;2024-01-06T06:32:59;42.89;31.21;59.61;;
63692;Laerm;49838;51.798;10.954;2024-01-06T06:35:27;45.29;33.39;56.65;;
63692;Laerm;49838;51.798;10.954;2024-01-06T06:37:54;45.27;31.64;57.80;;
63692;Laerm;49838;51.798;10.954;2024-01-06T06:40:23;51.86;33.70;66.43;;
63692;Laerm;49838;51.798;10.954;2024-01-06T06:42:50;42.83;33.10;55.45;;
63692;Laerm;49838;51.798;10.954;2024-01-06T06:45:17;41.12;29.47;57.75;;
63692;Laerm;49838;51.798;10.954;2024-01-06T06:47:48;40.41;31.70;58.19;;
63692;Laerm;49838;51.798;10.954;2024-01-06T06:50:16;37.52;30.55;53.33;;
63692;Laerm;49838;51.798;10.954;2024-01-06T06:52:44;34.66;29.63;45.24;;
63692;Laerm;49838;51.798;10.954;2024-01-06T06:55:11;37.23;30.53;52.45;;
63692;Laerm;49838;51.798;10.954;2024-01-06T06:57:40;51.81;30.33;70.56;;
63692;Laerm;49838;51.798;10.954;2024-01-06T07:00:08;33.05;29.27;41.11;;
63692;Laerm;49838;51.798;10.954;2024-01-06T07:02:35;33.17;30.15;40.05;;
63692;Laerm;49838;51.798;10.954;2024-01-06T07:05:03;46.01;30.82;66.37;;
63692;Laerm;49838;51.798;10.954;2024-01-06T07:07:33;36.50;29.35;49.64;;
63692;Laerm;49838;51.798;10.954;2024-01-06T07:10:00;47.79;31.46;65.13;;
63692;Laerm;49838;51.798;10.954;2024-01-06T07:12:27;35.11;30.80;46.03;;
63692;Laerm;49838;51.798;10.954;2024-01-06T07:14:56;50.78;31.79;69.06;;
63692;Laerm;49838;51.798;10.954;2024-01-06T07:17:24;37.36;30.77;48.39;;
63692;Laerm;49838;51.798;10.954;2024-01-06T07:19:52;35.00;30.74;52.75;;
63692;Laerm;49838;51.798;10.954;2024-01-06T07:22:19;53.63;30.71;71.38;;
63692;Laerm;49838;51.798;10.954;2024-01-06T07:24:47;55.29;31.05;73.38;;
63692;Laerm;49838;51.798;10.954;2024-01-06T07:27:14;51.06;32.53;66.53;;
63692;Laerm;49838;51.798;10.954;2024-01-06T07:29:41;56.94;31.47;77.43;;
63692;Laerm;49838;51.798;10.954;2024-01-06T07:32:10;43.20;31.89;61.89;;
63692;Laerm;49838;51.798;10.954;2024-01-06T07:34:37;37.01;31.33;53.95;;
63692;Laerm;49838;51.798;10.954;2024-01-06T07:37:04;38.67;33.12;53.71;;
63692;Laerm;49838;51.798;10.954;2024-01-06T07:39:32;49.39;30.92;67.16;;
63692;Laerm;49838;51.798;10.954;2024-01-06T07:41:59;36.09;31.96;46.40;;
63692;Laerm;49838;51.798;10.954;2024-01-06T07:44:26;48.23;32.22;62.89;;
63692;Laerm;49838;51.798;10.954;2024-01-06T07:46:54;39.69;32.12;53.06;;
63692;Laerm;49838;51.798;10.954;2024-01-06T07:49:22;53.33;33.05;71.41;;
63692;Laerm;49838;51.798;10.954;2024-01-06T07:51:49;37.13;32.05;57.48;;
63692;Laerm;49838;51.798;10.954;2024-01-06T07:54:17;48.96;32.32;67.87;;
63692;Laerm;49838;51.798;10.954;2024-01-06T07:56:44;55.18;32.20;71.24;;
63692;Laerm;49838;51.798;10.954;2024-01-06T07:59:11;36.83;30.27;57.74;;
63692;Laerm;49838;51.798;10.954;2024-01-06T08:01:39;58.72;30.94;75.84;;
63692;Laerm;49838;51.798;10.954;2024-01-06T08:04:08;37.67;31.14;55.08;;
63692;Laerm;49838;51.798;10.954;2024-01-06T08:06:37;42.86;31.03;63.68;;
63692;Laerm;49838;51.798;10.954;2024-01-06T08:09:04;56.97;30.72;75.26;;
63692;Laerm;49838;51.798;10.954;2024-01-06T08:11:32;36.31;31.04;53.77;;
63692;Laerm;49838;51.798;10.954;2024-01-06T08:13:59;52.92;31.33;72.21;;
63692;Laerm;49838;51.798;10.954;2024-01-06T08:16:26;37.42;31.04;53.90;;
63692;Laerm;49838;51.798;10.954;2024-01-06T08:18:53;64.65;31.19;83.47;;
63692;Laerm;49838;51.798;10.954;2024-01-06T08:21:20;50.25;35.01;65.24;;
63692;Laerm;49838;51.798;10.954;2024-01-06T08:23:49;54.24;32.00;73.56;;
63692;Laerm;49838;51.798;10.954;2024-01-06T08:26:17;38.29;31.87;56.16;;
63692;Laerm;49838;51.798;10.954;2024-01-06T08:28:44;55.70;31.53;73.10;;
63692;Laerm;49838;51.798;10.954;2024-01-06T08:31:11;35.04;30.44;47.04;;
63692;Laerm;49838;51.798;10.954;2024-01-06T08:33:39;51.25;30.98;69.40;;
63692;Laerm;49838;51.798;10.954;2024-01-06T08:36:06;61.38;31.92;81.00;;
63692;Laerm;49838;51.798;10.954;2024-01-06T08:38:34;36.72;31.21;48.10;;
63692;Laerm;49838;51.798;10.954;2024-01-06T08:41:03;50.80;32.44;69.33;;
63692;Laerm;49838;51.798;10.954;2024-01-06T08:43:30;53.24;32.20;71.99;;
63692;Laerm;49838;51.798;10.954;2024-01-06T08:45:57;48.68;32.41;66.32;;
63692;Laerm;49838;51.798;10.954;2024-01-06T08:48:25;36.83;31.14;47.04;;
63692;Laerm;49838;51.798;10.954;2024-01-06T08:50:52;54.60;33.19;70.34;;
63692;Laerm;49838;51.798;10.954;2024-01-06T08:53:20;37.67;31.32;51.59;;
63692;Laerm;49838;51.798;10.954;2024-01-06T08:55:47;57.35;34.52;74.43;;
63692;Laerm;49838;51.798;10.954;2024-01-06T08:58:15;56.10;32.77;72.61;;
63692;Laerm;49838;51.798;10.954;2024-01-06T09:00:43;50.10;31.78;67.36;;
63692;Laerm;49838;51.798;10.954;2024-01-06T09:03:10;49.29;31.73;64.58;;
63692;Laerm;49838;51.798;10.954;2024-01-06T09:05:38;52.43;32.78;71.73;;
63692;Laerm;49838;51.798;10.954;2024-01-06T09:08:06;53.72;32.89;72.72;;
63692;Laerm;49838;51.798;10.954;2024-01-06T09:10:33;40.92;33.77;57.72;;
63692;Laerm;49838;51.798;10.954;2024-01-06T09:13:00;58.17;37.57;75.33;;
63692;Laerm;49838;51.798;10.954;2024-01-06T09:15:32;54.08;36.22;70.60;;
63692;Laerm;49838;51.798;10.954;2024-01-06T09:17:59;57.80;37.64;74.13;;
63692;Laerm;49838;51.798;10.954;2024-01-06T09:20:27;48.23;35.27;66.98;;
63692;Laerm;49838;51.798;10.954;2024-01-06T09:22:54;41.76;34.84;59.65;;
63692;Laerm;49838;51.798;10.954;2024-01-06T09:25:22;50.03;35.02;66.71;;
63692;Laerm;49838;51.798;10.954;2024-01-06T09:27:50;47.25;35.50;64.08;;
63692;Laerm;49838;51.798;10.954;2024-01-06T09:30:19;57.00;35.68;76.36;;
63692;Laerm;49838;51.798;10.954;2024-01-06T09:32:47;55.30;34.95;70.09;;
63692;Laerm;49838;51.798;10.954;2024-01-06T09:35:15;49.35;34.23;65.38;;
63692;Laerm;49838;51.798;10.954;2024-01-06T09:37:42;52.46;33.75;71.04;;
63692;Laerm;49838;51.798;10.954;2024-01-06T09:40:12;55.66;34.54;71.58;;
63692;Laerm;49838;51.798;10.954;2024-01-06T09:42:40;54.61;32.49;70.33;;
63692;Laerm;49838;51.798;10.954;2024-01-06T09:45:08;38.64;32.62;55.79;;
63692;Laerm;49838;51.798;10.954;2024-01-06T09:47:35;40.90;33.67;66.61;;
63692;Laerm;49838;51.798;10.954;2024-01-06T09:50:06;56.39;35.52;70.73;;
63692;Laerm;49838;51.798;10.954;2024-01-06T09:52:39;50.80;32.46;68.41;;
63692;Laerm;49838;51.798;10.954;2024-01-06T09:55:10;56.93;32.92;73.66;;
63692;Laerm;49838;51.798;10.954;2024-01-06T09:57:38;50.49;32.94;67.63;;
63692;Laerm;49838;51.798;10.954;2024-01-06T10:00:06;41.13;31.04;70.08;;
63692;Laerm;49838;51.798;10.954;2024-01-06T10:02:35;39.33;32.85;58.80;;
63692;Laerm;49838;51.798;10.954;2024-01-06T10:05:02;52.49;32.50;70.92;;
63692;Laerm;49838;51.798;10.954;2024-01-06T10:07:31;45.41;33.68;59.43;;
63692;Laerm;49838;51.798;10.954;2024-01-06T10:09:58;62.50;34.33;77.36;;
63692;Laerm;49838;51.798;10.954;2024-01-06T10:12:26;42.32;33.26;60.01;;
63692;Laerm;49838;51.798;10.954;2024-01-06T10:14:54;52.55;33.09;69.01;;
63692;Laerm;49838;51.798;10.954;2024-01-06T10:17:21;47.56;32.45;64.01;;
63692;Laerm;49838;51.798;10.954;2024-01-06T10:19:49;54.24;34.12;70.87;;
63692;Laerm;49838;51.798;10.954;2024-01-06T10:22:17;55.23;34.01;70.97;;
63692;Laerm;49838;51.798;10.954;2024-01-06T10:24:46;52.11;33.92;71.36;;
63692;Laerm;49838;51.798;10.954;2024-01-06T10:27:13;53.51;32.83;71.52;;
63692;Laerm;49838;51.798;10.954;2024-01-06T10:29:40;54.67;35.00;70.70;;
63692;Laerm;49838;51.798;10.954;2024-01-06T10:32:08;52.28;35.06;67.71;;
63692;Laerm;49838;51.798;10.954;2024-01-06T10:34:36;61.65;35.74;80.56;;
63692;Laerm;49838;51.798;10.954;2024-01-06T10:37:05;55.91;35.98;73.61;;
63692;Laerm;49838;51.798;10.954;2024-01-06T10:39:33;56.92;38.04;73.99;;
63692;Laerm;49838;51.798;10.954;2024-01-06T10:42:02;49.60;35.64;65.40;;
63692;Laerm;49838;51.798;10.954;2024-01-06T10:44:31;57.76;34.69;75.58;;
63692;Laerm;49838;51.798;10.954;2024-01-06T10:46:59;54.24;36.57;75.23;;
63692;Laerm;49838;51.798;10.954;2024-01-06T10:49:28;48.13;33.76;62.76;;
63692;Laerm;49838;51.798;10.954;2024-01-06T10:51:56;56.60;36.15;72.95;;
63692;Laerm;49838;51.798;10.954;2024-01-06T10:54:26;53.82;34.13;72.51;;
63692;Laerm;49838;51.798;10.954;2024-01-06T10:56:55;55.09;34.49;73.94;;
63692;Laerm;49838;51.798;10.954;2024-01-06T10:59:26;41.98;35.06;57.38;;
63692;Laerm;49838;51.798;10.954;2024-01-06T11:01:56;56.57;37.39;70.67;;
63692;Laerm;49838;51.798;10.954;2024-01-06T11:04:24;51.76;38.89;68.17;;
63692;Laerm;49838;51.798;10.954;2024-01-06T11:06:52;58.20;38.21;76.86;;
63692;Laerm;49838;51.798;10.954;2024-01-06T11:09:22;41.27;35.93;52.10;;
63692;Laerm;49838;51.798;10.954;2024-01-06T11:11:51;54.16;35.96;72.37;;
63692;Laerm;49838;51.798;10.954;2024-01-06T11:14:22;55.45;41.75;70.26;;
63692;Laerm;49838;51.798;10.954;2024-01-06T11:16:52;54.78;37.64;72.02;;
63692;Laerm;49838;51.798;10.954;2024-01-06T11:19:44;52.94;36.95;71.84;;
63692;Laerm;49838;51.798;10.954;2024-01-06T11:22:34;50.90;36.48;65.86;;
63692;Laerm;49838;51.798;10.954;2024-01-06T11:25:06;50.07;36.58;65.32;;
63692;Laerm;49838;51.798;10.954;2024-01-06T11:27:35;53.85;36.19;70.76;;
63692;Laerm;49838;51.798;10.954;2024-01-06T11:30:04;57.44;36.85;75.26;;
63692;Laerm;49838;51.798;10.954;2024-01-06T11:32:34;42.06;36.18;54.52;;
63692;Laerm;49838;51.798;10.954;2024-01-06T11:35:06;60.53;37.10;79.49;;
63692;Laerm;49838;51.798;10.954;2024-01-06T11:37:36;58.38;37.11;70.34;;
63692;Laerm;49838;51.798;10.954;2024-01-06T11:40:08;54.74;38.48;70.64;;
63692;Laerm;49838;51.798;10.954;2024-01-06T11:42:36;56.12;35.91;75.32;;
63692;Laerm;49838;51.798;10.954;2024-01-06T11:45:04;62.22;35.86;78.83;;
63692;Laerm;49838;51.798;10.954;2024-01-06T11:47:34;58.11;39.16;74.94;;
63692;Laerm;49838;51.798;10.954;2024-01-06T11:50:03;57.96;37.24;74.71;;
63692;Laerm;49838;51.798;10.954;2024-01-06T11:52:32;51.66;36.02;65.79;;
63692;Laerm;49838;51.798;10.954;2024-01-06T11:55:00;56.56;38.15;71.15;;
63692;Laerm;49838;51.798;10.954;2024-01-06T11:57:28;56.82;35.69;72.54;;
63692;Laerm;49838;51.798;10.954;2024-01-06T11:59:56;58.79;35.17;74.41;;
63692;Laerm;49838;51.798;10.954;2024-01-06T12:02:23;54.61;35.19;70.67;;
63692;Laerm;49838;51.798;10.954;2024-01-06T12:04:53;54.48;36.16;70.60;;
63692;Laerm;49838;51.798;10.954;2024-01-06T12:07:21;59.71;36.12;80.26;;
63692;Laerm;49838;51.798;10.954;2024-01-06T12:09:50;54.90;38.08;68.56;;
63692;Laerm;49838;51.798;10.954;2024-01-06T12:12:17;54.65;39.51;68.30;;
63692;Laerm;49838;51.798;10.954;2024-01-06T12:14:45;52.43;35.33;66.50;;
63692;Laerm;49838;51.798;10.954;2024-01-06T12:17:13;54.67;34.82;74.46;;
63692;Laerm;49838;51.798;10.954;2024-01-06T12:19:41;40.47;33.24;51.14;;
63692;Laerm;49838;51.798;10.954;2024-01-06T12:22:14;59.26;35.23;74.89;;
63692;Laerm;49838;51.798;10.954;2024-01-06T12:24:42;58.95;35.31;75.90;;
63692;Laerm;49838;51.798;10.954;2024-01-06T12:27:10;53.78;36.60;67.69;;
63692;Laerm;49838;51.798;10.954;2024-01-06T12:29:38;39.39;33.54;62.25;;
63692;Laerm;49838;51.798;10.954;2024-01-06T12:32:06;56.86;33.25;71.34;;
63692;Laerm;49838;51.798;10.954;2024-01-06T12:34:34;59.58;36.26;78.52;;
63692;Laerm;49838;51.798;10.954;2024-01-06T12:37:02;42.91;36.27;54.28;;
63692;Laerm;49838;51.798;10.954;2024-01-06T12:39:31;58.11;37.23;76.35;;
63692;Laerm;49838;51.798;10.954;2024-01-06T12:41:58;41.14;34.99;50.42;;
63692;Laerm;49838;51.798;10.954;2024-01-06T12:44:27;57.25;34.73;72.23;;
63692;Laerm;49838;51.798;10.954;2024-01-06T12:46:54;43.73;32.81;62.11;;
63692;Laerm;49838;51.798;10.954;2024-01-06T12:49:21;57.17;36.88;75.21;;
63692;Laerm;49838;51.798;10.954;2024-01-06T12:51:49;61.10;35.10;80.08;;
63692;Laerm;49838;51.798;10.954;2024-01-06T12:54:16;41.00;34.06;50.69;;
63692;Laerm;49838;51.798;10.954;2024-01-06T12:56:45;53.58;34.93;71.53;;
63692;Laerm;49838;51.798;10.954;2024-01-06T12:59:12;52.28;34.92;70.53;;
63692;Laerm;49838;51.798;10.954;2024-01-06T13:01:39;56.01;35.87;75.10;;
63692;Laerm;49838;51.798;10.954;2024-01-06T13:04:07;49.58;36.24;64.93;;
63692;Laerm;49838;51.798;10.954;2024-01-06T13:06:35;47.53;32.63;70.98;;
63692;Laerm;49838;51.798;10.954;2024-01-06T13:09:02;52.41;32.07;71.45;;
63692;Laerm;49838;51.798;10.954;2024-01-06T13:11:32;42.83;33.72;56.79;;
63692;Laerm;49838;51.798;10.954;2024-01-06T13:14:01;53.20;34.53;70.22;;
63692;Laerm;49838;51.798;10.954;2024-01-06T13:16:29;55.53;37.21;73.79;;
63692;Laerm;49838;51.798;10.954;2024-01-06T13:18:56;52.31;34.80;71.67;;
63692;Laerm;49838;51.798;10.954;2024-01-06T13:21:23;54.81;32.26;74.01;;
63692;Laerm;49838;51.798;10.954;2024-01-06T13:23:51;56.15;33.61;74.20;;
63692;Laerm;49838;51.798;10.954;2024-01-06T13:26:18;51.70;34.55;69.20;;
63692;Laerm;49838;51.798;10.954;2024-01-06T13:28:45;53.79;37.95;71.52;;
63692;Laerm;49838;51.798;10.954;2024-01-06T13:31:14;64.88;36.79;84.49;;
63692;Laerm;49838;51.798;10.954;2024-01-06T13:33:41;55.83;34.76;71.75;;
63692;Laerm;49838;51.798;10.954;2024-01-06T13:36:09;44.59;37.13;59.98;;